createdAt,value
2019-05-10T00:00:54.573Z,73.94
2019-05-10T00:03:40.570Z,73.88
2019-05-10T00:06:26.962Z,74.50
2019-05-10T00:08:54.703Z,74.40
2019-05-10T00:11:30.703Z,74.30
2019-05-10T00:14:03.894Z,73.61
2019-05-10T00:16:32.481Z,73.92
2019-05-10T00:19:00.963Z,74.17
2019-05-10T00:21:29.546Z,74.49
2019-05-10T00:23:58.025Z,76.98
2019-05-10T00:26:26.539Z,78.08
2019-05-10T00:28:55.090Z,80.04
2019-05-10T00:31:23.600Z,78.95
2019-05-10T00:33:52.183Z,78.73
2019-05-10T00:36:20.669Z,77.06
2019-05-10T00:38:49.235Z,76.84
2019-05-10T00:41:17.790Z,76.61
2019-05-10T00:43:46.329Z,77.20
2019-05-10T00:46:14.791Z,78.10
2019-05-10T00:48:43.309Z,77.92
2019-05-10T00:51:11.863Z,78.23
2019-05-10T00:53:40.363Z,76.84
2019-05-10T00:56:08.924Z,76.17
2019-05-10T00:58:37.425Z,75.25
2019-05-10T01:01:05.984Z,74.16
2019-05-10T01:03:34.503Z,73.15
2019-05-10T01:06:03.068Z,72.92
2019-05-10T01:08:31.531Z,73.72
2019-05-10T01:11:00.115Z,72.83
2019-05-10T01:13:28.614Z,73.18
2019-05-10T01:15:57.203Z,72.66
2019-05-10T01:18:25.729Z,72.25
2019-05-10T01:20:54.210Z,72.07
2019-05-10T01:23:22.730Z,73.48
2019-05-10T01:25:51.210Z,73.00
2019-05-10T01:28:19.706Z,72.95
2019-05-10T01:30:48.260Z,71.88
2019-05-10T01:33:16.770Z,71.53
2019-05-10T01:35:45.335Z,72.25
2019-05-10T01:38:13.822Z,71.82
2019-05-10T01:40:42.320Z,71.66
2019-05-10T01:43:10.804Z,71.69
2019-05-10T01:45:39.289Z,71.18
2019-05-10T01:48:07.792Z,71.76
2019-05-10T01:50:36.273Z,72.26
2019-05-10T01:53:04.776Z,71.82
2019-05-10T01:55:33.266Z,72.70
2019-05-10T01:58:01.794Z,72.01
2019-05-10T02:00:30.735Z,71.67
2019-05-10T02:02:59.259Z,71.38
2019-05-10T02:05:27.745Z,71.33
2019-05-10T02:07:56.261Z,71.19
2019-05-10T02:10:24.771Z,71.01
2019-05-10T02:12:53.365Z,71.00
2019-05-10T02:15:21.946Z,70.61
2019-05-10T02:17:50.430Z,70.74
2019-05-10T02:20:18.945Z,72.05
2019-05-10T02:22:47.431Z,72.56
2019-05-10T02:25:16.158Z,72.71
2019-05-10T02:27:44.650Z,72.79
2019-05-10T02:30:14.678Z,72.62
2019-05-10T02:32:43.194Z,72.27
2019-05-10T02:35:11.923Z,73.03
2019-05-10T02:37:40.506Z,72.64
2019-05-10T02:40:09.532Z,72.13
2019-05-10T02:42:38.170Z,71.79
2019-05-10T02:45:08.405Z,71.14
2019-05-10T02:47:36.892Z,71.18
2019-05-10T02:50:08.359Z,71.29
2019-05-10T02:52:36.867Z,70.51
2019-05-10T02:55:07.073Z,70.57
2019-05-10T02:57:37.605Z,70.74
2019-05-10T03:00:07.738Z,70.66
2019-05-10T03:02:37.892Z,70.29
2019-05-10T03:05:07.537Z,70.65
2019-05-10T03:07:38.233Z,71.13
2019-05-10T03:10:09.425Z,71.40
2019-05-10T03:12:38.704Z,72.02
2019-05-10T03:15:07.723Z,71.71
2019-05-10T03:17:38.417Z,71.40
2019-05-10T03:20:07.250Z,71.35
2019-05-10T03:22:38.788Z,71.53
2019-05-10T03:25:06.932Z,71.74
2019-05-10T03:27:35.729Z,71.61
2019-05-10T03:30:05.528Z,70.75
2019-05-10T03:32:34.113Z,70.77
2019-05-10T03:35:02.743Z,71.36
2019-05-10T03:37:31.685Z,70.85
2019-05-10T03:40:00.182Z,70.83
2019-05-10T03:42:28.737Z,70.56
2019-05-10T03:44:57.234Z,70.28
2019-05-10T03:47:25.783Z,70.46
2019-05-10T03:49:54.297Z,70.90
2019-05-10T03:52:22.782Z,70.88
2019-05-10T03:54:51.373Z,70.61
2019-05-10T03:57:19.860Z,70.25
2019-05-10T03:59:48.351Z,71.06
2019-05-10T04:02:16.938Z,71.10
2019-05-10T04:04:45.430Z,70.66
2019-05-10T04:07:13.965Z,70.59
2019-05-10T04:09:42.548Z,70.50
2019-05-10T04:12:11.115Z,69.96
2019-05-10T04:14:39.603Z,70.24
2019-05-10T04:17:08.101Z,70.09
2019-05-10T04:19:36.786Z,69.95
2019-05-10T04:22:05.272Z,70.14
2019-05-10T04:24:36.454Z,69.68
2019-05-10T04:27:05.034Z,69.24
2019-05-10T04:29:33.553Z,69.58
2019-05-10T04:32:02.050Z,69.68
2019-05-10T04:34:30.556Z,69.38
2019-05-10T04:36:59.059Z,69.08
2019-05-10T04:39:27.549Z,69.37
2019-05-10T04:41:56.080Z,69.58
2019-05-10T04:44:24.573Z,70.35
2019-05-10T04:46:53.073Z,69.90
2019-05-10T04:49:21.567Z,69.77
2019-05-10T04:51:50.082Z,70.76
2019-05-10T04:54:18.573Z,71.99
2019-05-10T04:56:47.162Z,71.65
2019-05-10T04:59:15.636Z,71.20
2019-05-10T05:01:44.180Z,71.19
2019-05-10T05:04:12.643Z,71.63
2019-05-10T05:06:41.144Z,71.70
2019-05-10T05:09:10.774Z,72.08
2019-05-10T05:11:39.288Z,71.37
2019-05-10T05:14:09.695Z,70.73
2019-05-10T05:16:38.004Z,70.71
2019-05-10T05:19:06.497Z,71.31
2019-05-10T05:21:35.003Z,71.30
2019-05-10T05:24:03.514Z,71.73
2019-05-10T05:26:32.006Z,72.45
2019-05-10T05:29:00.514Z,71.95
2019-05-10T05:31:29.029Z,70.99
2019-05-10T05:33:59.138Z,71.00
2019-05-10T05:36:27.743Z,70.75
2019-05-10T05:38:56.232Z,70.37
2019-05-10T05:41:24.719Z,71.22
2019-05-10T05:43:53.229Z,71.60
2019-05-10T05:46:21.779Z,71.18
2019-05-10T05:48:51.562Z,70.42
2019-05-10T05:51:20.250Z,70.30
2019-05-10T05:53:48.791Z,69.98
2019-05-10T05:56:17.337Z,69.53
2019-05-10T05:58:47.099Z,67.97
2019-05-10T06:01:24.693Z,67.52
2019-05-10T06:03:45.997Z,67.88
2019-05-10T06:06:21.239Z,66.97
2019-05-10T06:08:44.800Z,66.85
2019-05-10T06:11:13.385Z,68.09
2019-05-10T06:13:41.884Z,67.76
2019-05-10T06:16:12.906Z,68.01
2019-05-10T06:18:41.730Z,67.95
2019-05-10T06:21:10.823Z,68.04
2019-05-10T06:23:39.321Z,67.59
2019-05-10T06:26:21.398Z,69.27
2019-05-10T06:28:57.881Z,70.50
2019-05-10T06:31:08.475Z,69.56
2019-05-10T06:33:39.630Z,68.05
2019-05-10T06:36:07.275Z,68.15
2019-05-10T06:38:35.833Z,68.16
2019-05-10T06:41:10.190Z,67.71
2019-05-10T06:43:35.242Z,67.43
2019-05-10T06:46:05.191Z,67.46
2019-05-10T06:48:33.863Z,66.79
2019-05-10T06:51:03.040Z,65.71
2019-05-10T06:53:32.593Z,65.41
2019-05-10T06:56:01.115Z,64.84
2019-05-10T06:58:30.589Z,65.23
2019-05-10T07:00:59.851Z,65.67
2019-05-10T07:03:28.375Z,67.02
2019-05-10T07:05:56.876Z,65.90
2019-05-10T07:08:25.490Z,67.20
2019-05-10T07:10:53.968Z,67.01
2019-05-10T07:13:22.487Z,66.50
2019-05-10T07:15:51.574Z,67.10
2019-05-10T07:18:22.710Z,67.41
2019-05-10T07:20:50.316Z,67.42
2019-05-10T07:23:18.798Z,68.74
2019-05-10T07:25:47.328Z,68.35
2019-05-10T07:28:17.640Z,66.94
2019-05-10T07:30:46.287Z,66.37
2019-05-10T07:33:14.837Z,66.27
2019-05-10T07:35:43.356Z,65.13
2019-05-10T07:38:11.839Z,65.56
2019-05-10T07:40:40.342Z,63.70
2019-05-10T07:43:08.834Z,63.64
2019-05-10T07:45:37.332Z,63.13
2019-05-10T07:48:08.319Z,64.17
2019-05-10T07:50:36.081Z,63.98
2019-05-10T07:53:06.275Z,63.33
2019-05-10T07:55:34.759Z,63.37
2019-05-10T07:58:05.024Z,63.24
2019-05-10T08:00:37.959Z,61.24
2019-05-10T08:03:13.114Z,61.35
2019-05-10T08:05:34.707Z,61.79
2019-05-10T08:08:03.538Z,60.04
2019-05-10T08:10:32.089Z,61.38
2019-05-10T08:13:03.586Z,61.96
2019-05-10T08:15:34.730Z,59.81
2019-05-10T08:18:01.048Z,58.82
2019-05-10T08:20:45.724Z,57.79
2019-05-10T08:22:59.846Z,56.77
2019-05-10T08:25:35.429Z,56.49
2019-05-10T08:27:58.625Z,56.19
2019-05-10T08:30:42.532Z,56.19
2019-05-10T08:33:09.635Z,58.11
2019-05-10T08:35:38.934Z,58.43
2019-05-10T08:38:07.660Z,58.49
2019-05-10T08:40:38.040Z,57.43
2019-05-10T08:43:08.898Z,55.26
2019-05-10T08:45:38.739Z,55.52
2019-05-10T08:48:07.329Z,55.71
2019-05-10T08:50:49.522Z,54.04
2019-05-10T08:53:10.943Z,54.10
2019-05-10T08:55:36.338Z,50.44
2019-05-10T08:58:05.055Z,51.20
2019-05-10T09:00:48.860Z,54.63
2019-05-10T09:03:09.554Z,52.07
2019-05-10T09:05:34.901Z,49.60
2019-05-10T09:08:05.761Z,45.12
2019-05-10T09:10:34.229Z,46.73
2019-05-10T09:13:03.464Z,46.55
2019-05-10T09:15:33.076Z,45.88
2019-05-10T09:18:05.289Z,47.78
2019-05-10T09:20:32.129Z,45.89
2019-05-10T09:23:02.470Z,47.15
2019-05-10T09:25:33.617Z,47.16
2019-05-10T09:28:02.472Z,46.25
2019-05-10T09:30:36.579Z,46.97
2019-05-10T09:33:10.461Z,44.62
2019-05-10T09:35:38.790Z,46.48
2019-05-10T09:38:06.232Z,46.43
2019-05-10T09:40:34.787Z,44.61
2019-05-10T09:43:07.400Z,45.14
2019-05-10T09:45:33.758Z,43.11
2019-05-10T09:48:02.626Z,47.30
2019-05-10T09:50:41.224Z,48.09
2019-05-10T09:53:01.568Z,46.83
2019-05-10T09:55:30.049Z,50.15
2019-05-10T09:57:58.571Z,51.12
2019-05-10T10:00:37.817Z,54.03
2019-05-10T10:03:08.182Z,55.39
2019-05-10T10:05:39.785Z,57.30
2019-05-10T10:08:09.594Z,57.29
2019-05-10T10:10:37.134Z,58.23
2019-05-10T10:13:13.243Z,58.29
2019-05-10T10:15:37.723Z,58.46
2019-05-10T10:18:06.448Z,58.13
2019-05-10T10:20:43.013Z,57.61
2019-05-10T10:23:07.368Z,56.89
2019-05-10T10:25:40.804Z,55.57
2019-05-10T10:28:10.353Z,54.59
2019-05-10T10:30:37.424Z,54.68
2019-05-10T10:33:11.492Z,56.25
2019-05-10T10:35:37.870Z,57.41
2019-05-10T10:38:07.976Z,59.04
2019-05-10T10:40:44.134Z,57.70
2019-05-10T10:43:07.719Z,56.55
2019-05-10T10:45:37.709Z,57.86
2019-05-10T10:48:10.589Z,57.25
2019-05-10T10:50:36.623Z,58.30
2019-05-10T10:53:07.756Z,59.05
2019-05-10T10:55:39.383Z,58.98
2019-05-10T10:58:07.403Z,56.69
2019-05-10T11:00:38.958Z,58.19
2019-05-10T11:03:07.497Z,58.23
2019-05-10T11:05:36.006Z,57.58
2019-05-10T11:08:05.059Z,60.08
2019-05-10T11:10:33.704Z,59.27
2019-05-10T11:13:10.027Z,60.48
2019-05-10T11:15:35.972Z,63.59
2019-05-10T11:18:02.705Z,64.26
2019-05-10T11:20:31.929Z,64.45
2019-05-10T11:23:00.643Z,63.98
2019-05-10T11:25:29.246Z,64.28
2019-05-10T11:27:59.302Z,62.41
2019-05-10T11:30:28.051Z,63.01
2019-05-10T11:32:56.542Z,62.58
2019-05-10T11:35:30.547Z,61.50
2019-05-10T11:37:55.362Z,61.32
2019-05-10T11:40:30.879Z,60.97
2019-05-10T11:42:54.173Z,64.85
2019-05-10T11:45:26.273Z,67.36
2019-05-10T11:47:59.075Z,69.51
2019-05-10T11:50:34.932Z,68.66
2019-05-10T11:53:01.006Z,66.36
2019-05-10T11:55:30.928Z,63.83
2019-05-10T11:58:03.037Z,61.76
2019-05-10T12:00:34.081Z,62.82
2019-05-10T12:03:07.889Z,63.13
2019-05-10T12:05:32.062Z,64.15
2019-05-10T12:08:02.182Z,65.50
2019-05-10T12:10:32.005Z,65.64
2019-05-10T12:13:11.333Z,66.06
2019-05-10T12:15:31.957Z,66.54
2019-05-10T12:18:04.545Z,67.99
2019-05-10T12:20:41.694Z,67.54
2019-05-10T12:23:03.369Z,68.33
2019-05-10T12:25:46.351Z,71.00
2019-05-10T12:28:01.571Z,70.02
2019-05-10T12:30:34.854Z,69.93
2019-05-10T12:33:08.964Z,71.03
2019-05-10T12:35:35.690Z,72.05
2019-05-10T12:38:01.679Z,71.67
2019-05-10T12:40:31.429Z,72.78
2019-05-10T12:43:00.684Z,73.38
2019-05-10T12:45:31.367Z,73.05
2019-05-10T12:48:01.292Z,71.89
2019-05-10T12:50:29.814Z,69.63
2019-05-10T12:53:10.078Z,67.57
2019-05-10T12:55:29.467Z,67.57
2019-05-10T12:57:57.967Z,67.66
2019-05-10T13:00:26.531Z,67.08
2019-05-10T13:03:10.282Z,66.71
2019-05-10T13:05:32.122Z,67.64
2019-05-10T13:07:55.505Z,67.43
2019-05-10T13:10:24.073Z,66.52
2019-05-10T13:12:52.584Z,66.00
2019-05-10T13:15:24.651Z,66.23
2019-05-10T13:17:53.063Z,67.90
2019-05-10T13:20:22.460Z,65.82
2019-05-10T13:22:50.972Z,67.18
2019-05-10T13:25:19.516Z,66.22
2019-05-10T13:27:48.035Z,66.43
2019-05-10T13:30:27.045Z,66.96
2019-05-10T13:32:52.777Z,64.54
2019-05-10T13:35:18.344Z,62.45
2019-05-10T13:37:46.851Z,59.99
2019-05-10T13:40:16.081Z,58.60
2019-05-10T13:42:45.994Z,58.97
2019-05-10T13:45:15.210Z,58.58
2019-05-10T13:47:43.719Z,53.00
2019-05-10T13:50:12.480Z,53.60
2019-05-10T13:52:41.504Z,55.20
2019-05-10T13:55:10.263Z,54.67
2019-05-10T13:57:38.787Z,54.93
2019-05-10T14:00:08.634Z,58.32
2019-05-10T14:02:37.156Z,57.44
2019-05-10T14:05:06.687Z,54.86
2019-05-10T14:07:35.182Z,58.24
2019-05-10T14:10:04.840Z,57.13
2019-05-10T14:12:33.896Z,57.12
2019-05-10T14:15:08.342Z,59.15
2019-05-10T14:17:32.626Z,58.78
2019-05-10T14:20:01.122Z,58.40
2019-05-10T14:22:29.668Z,58.17
2019-05-10T14:24:59.171Z,58.08
2019-05-10T14:27:29.765Z,57.76
2019-05-10T14:29:59.196Z,56.85
2019-05-10T14:32:27.675Z,57.61
2019-05-10T14:34:56.178Z,59.24
2019-05-10T14:37:24.694Z,58.98
2019-05-10T14:39:53.187Z,57.83
2019-05-10T14:42:23.810Z,58.37
2019-05-10T14:44:51.926Z,55.86
2019-05-10T14:47:20.397Z,54.66
2019-05-10T14:49:48.887Z,54.84
2019-05-10T14:52:17.396Z,53.64
2019-05-10T14:54:49.855Z,55.74
2019-05-10T14:57:17.201Z,57.34
2019-05-10T14:59:56.709Z,56.95
2019-05-10T15:02:25.475Z,55.69
2019-05-10T15:04:53.977Z,57.03
2019-05-10T15:07:22.477Z,58.32
2019-05-10T15:09:54.312Z,56.76
2019-05-10T15:12:22.743Z,56.24
2019-05-10T15:14:51.495Z,55.60
2019-05-10T15:17:20.439Z,54.38
2019-05-10T15:19:57.084Z,53.84
2019-05-10T15:22:22.990Z,57.03
2019-05-10T15:24:49.550Z,56.92
2019-05-10T15:27:21.825Z,55.50
2019-05-10T15:29:48.382Z,55.06
2019-05-10T15:32:16.936Z,55.38
2019-05-10T15:35:04.305Z,52.60
2019-05-10T15:37:18.005Z,53.87
2019-05-10T15:39:46.503Z,53.26
2019-05-10T15:42:14.998Z,53.26
2019-05-10T15:44:43.487Z,54.53
2019-05-10T15:47:14.532Z,52.93
2019-05-10T15:49:42.239Z,52.21
2019-05-10T15:52:17.563Z,51.59
2019-05-10T15:54:44.596Z,52.14
2019-05-10T15:57:14.449Z,54.40
2019-05-10T15:59:41.785Z,53.24
2019-05-10T16:02:10.348Z,53.31
2019-05-10T16:04:38.862Z,56.42
2019-05-10T16:07:09.343Z,55.32
2019-05-10T16:09:37.691Z,55.48
2019-05-10T16:12:08.720Z,56.87
2019-05-10T16:14:39.207Z,56.48
2019-05-10T16:19:41.244Z,55.07
2019-05-10T16:22:09.762Z,56.83
2019-05-10T16:24:38.288Z,56.06
2019-05-10T16:27:08.344Z,54.80
2019-05-10T16:29:43.385Z,55.58
2019-05-10T16:32:15.390Z,57.68
2019-05-10T16:34:44.371Z,56.29
2019-05-10T16:37:13.021Z,56.61
2019-05-10T16:39:43.284Z,54.81
2019-05-10T16:42:18.735Z,53.69
2019-05-10T16:45:00.412Z,53.02
2019-05-10T16:47:29.199Z,54.88
2019-05-10T16:49:57.743Z,54.88
2019-05-10T16:52:27.940Z,54.90
2019-05-10T16:57:22.938Z,55.65
2019-05-10T16:59:51.453Z,55.12
2019-05-10T17:02:20.083Z,52.36
2019-05-10T17:04:48.715Z,50.76
2019-05-10T17:07:19.041Z,50.72
2019-05-10T17:09:49.602Z,51.27
2019-05-10T17:12:22.078Z,51.92
2019-05-10T17:14:50.589Z,52.47
2019-05-10T17:17:18.495Z,52.65
2019-05-10T17:19:47.024Z,52.73
2019-05-10T17:22:15.622Z,52.53
2019-05-10T17:24:44.158Z,52.09
2019-05-10T17:27:12.670Z,52.17
2019-05-10T17:29:44.453Z,52.45
2019-05-10T17:32:11.416Z,52.39
2019-05-10T17:34:42.380Z,52.68
2019-05-10T17:37:29.657Z,52.80
2019-05-10T17:40:04.773Z,53.54
2019-05-10T17:42:51.879Z,54.23
2019-05-10T17:48:21.379Z,55.06
2019-05-10T17:50:49.884Z,55.33
2019-05-10T17:53:18.382Z,56.56
2019-05-10T17:55:49.364Z,56.12
2019-05-10T17:58:17.383Z,56.66
2019-05-10T18:00:46.746Z,56.67
2019-05-10T18:03:15.289Z,56.78
2019-05-10T18:05:46.676Z,57.38
2019-05-10T18:08:14.097Z,57.25
2019-05-10T18:10:42.584Z,57.23
2019-05-10T18:13:11.167Z,57.25
2019-05-10T18:15:39.731Z,57.50
2019-05-10T18:18:08.246Z,57.50
2019-05-10T18:20:42.205Z,57.60
2019-05-10T18:23:07.039Z,57.51
2019-05-10T18:25:35.598Z,57.61
2019-05-10T18:28:04.825Z,57.86
2019-05-10T18:30:33.313Z,58.29
2019-05-10T18:33:06.692Z,59.22
2019-05-10T18:35:32.343Z,59.36
2019-05-10T18:38:01.018Z,59.29
2019-05-10T18:40:31.831Z,59.87
2019-05-10T18:43:03.908Z,59.88
2019-05-10T18:45:30.175Z,59.77
2019-05-10T18:47:58.686Z,60.51
2019-05-10T18:50:27.234Z,60.62
2019-05-10T18:52:55.776Z,60.92
2019-05-10T18:55:24.352Z,60.31
2019-05-10T18:57:52.854Z,59.79
2019-05-10T19:00:22.899Z,60.69
2019-05-10T19:02:55.167Z,60.95
2019-05-10T19:05:25.065Z,60.64
2019-05-10T19:08:03.151Z,60.61
2019-05-10T19:10:22.838Z,60.51
2019-05-10T19:12:59.777Z,60.57
2019-05-10T19:15:21.588Z,60.79
2019-05-10T19:17:50.115Z,60.93
2019-05-10T19:20:18.719Z,64.27
2019-05-10T19:22:47.247Z,66.29
2019-05-10T19:25:15.828Z,66.20
2019-05-10T19:27:50.223Z,65.53
2019-05-10T19:30:20.206Z,64.71
2019-05-10T19:32:50.980Z,63.83
2019-05-10T19:35:16.699Z,63.53
2019-05-10T19:37:45.188Z,63.00
2019-05-10T19:40:14.368Z,62.53
2019-05-10T19:42:44.850Z,62.77
2019-05-10T19:45:19.182Z,62.92
2019-05-10T19:47:43.530Z,63.51
2019-05-10T19:50:12.768Z,63.85
2019-05-10T19:52:41.325Z,63.75
2019-05-10T19:55:12.875Z,63.53
2019-05-10T19:57:40.395Z,63.99
2019-05-10T20:00:09.633Z,63.37
2019-05-10T20:02:38.238Z,63.75
2019-05-10T20:05:10.049Z,63.90
2019-05-10T20:07:46.008Z,64.66
2019-05-10T20:10:09.071Z,65.54
2019-05-10T20:12:37.610Z,66.34
2019-05-10T20:15:07.647Z,65.99
2019-05-10T20:17:36.557Z,65.67
2019-05-10T20:20:08.580Z,65.78
2019-05-10T20:22:37.131Z,66.61
2019-05-10T20:25:09.531Z,66.18
2019-05-10T20:27:38.057Z,66.28
2019-05-10T20:30:07.600Z,67.26
2019-05-10T20:32:36.113Z,67.67
2019-05-10T20:35:06.917Z,66.36
2019-05-10T20:37:35.520Z,65.83
2019-05-10T20:40:06.540Z,65.37
2019-05-10T20:42:35.131Z,65.50
2019-05-10T20:45:08.606Z,65.84
2019-05-10T20:47:34.005Z,68.06
2019-05-10T20:50:02.484Z,68.96
2019-05-10T20:52:30.981Z,70.32
2019-05-10T20:54:59.536Z,69.98
2019-05-10T20:57:28.068Z,69.38
2019-05-10T20:59:56.558Z,68.81
2019-05-10T21:02:25.095Z,70.95
2019-05-10T21:04:53.588Z,71.47
2019-05-10T21:07:22.077Z,72.00
2019-05-10T21:09:50.601Z,72.44
2019-05-10T21:12:19.091Z,72.21
2019-05-10T21:14:48.201Z,73.21
2019-05-10T21:17:16.871Z,72.78
2019-05-10T21:19:45.387Z,72.98
2019-05-10T21:22:13.873Z,73.47
2019-05-10T21:24:42.399Z,72.43
2019-05-10T21:27:10.878Z,70.53
2019-05-10T21:29:39.422Z,70.15
2019-05-10T21:32:08.057Z,70.02
2019-05-10T21:34:36.571Z,69.54
2019-05-10T21:37:05.133Z,70.02
2019-05-10T21:39:33.885Z,69.67
2019-05-10T21:42:02.382Z,69.29
2019-05-10T21:44:30.874Z,68.96
2019-05-10T21:46:59.384Z,68.18
2019-05-10T21:49:29.280Z,67.27
2019-05-10T21:51:57.782Z,66.41
2019-05-10T21:54:26.276Z,66.17
2019-05-10T21:56:54.808Z,66.15
2019-05-10T21:59:23.382Z,66.26
2019-05-10T22:01:51.964Z,65.60
2019-05-10T22:04:20.482Z,65.46
2019-05-10T22:06:48.961Z,65.30
2019-05-10T22:09:17.556Z,65.13
2019-05-10T22:11:46.156Z,65.02
2019-05-10T22:14:14.679Z,65.35
2019-05-10T22:16:43.170Z,65.58
2019-05-10T22:19:11.759Z,64.95
2019-05-10T22:21:40.282Z,64.82
2019-05-10T22:24:08.782Z,64.30
2019-05-10T22:26:37.351Z,64.06
2019-05-10T22:29:05.843Z,64.37
2019-05-10T22:31:34.343Z,64.77
2019-05-10T22:34:02.865Z,65.01
2019-05-10T22:36:31.351Z,64.90
2019-05-10T22:39:07.113Z,65.03
2019-05-10T22:41:30.254Z,65.44
2019-05-10T22:43:58.789Z,65.95
2019-05-10T22:46:27.256Z,65.76
2019-05-10T22:48:55.775Z,66.04
2019-05-10T22:51:24.357Z,66.41
2019-05-10T22:53:59.698Z,66.10
2019-05-10T22:56:23.115Z,66.61
2019-05-10T22:58:51.641Z,66.29
2019-05-10T23:01:20.127Z,65.68
2019-05-10T23:03:48.653Z,65.21
2019-05-10T23:06:17.137Z,65.64
2019-05-10T23:08:45.647Z,65.09
2019-05-10T23:11:14.135Z,65.03
2019-05-10T23:13:42.682Z,65.68
2019-05-10T23:16:11.165Z,66.10
2019-05-10T23:18:39.652Z,65.54
2019-05-10T23:21:08.183Z,65.14
2019-05-10T23:23:36.687Z,65.12
2019-05-10T23:26:05.205Z,65.46
2019-05-10T23:28:33.690Z,65.52
2019-05-10T23:31:02.209Z,64.90
2019-05-10T23:33:30.699Z,64.91
2019-05-10T23:35:59.207Z,64.61
2019-05-10T23:38:27.706Z,64.45
2019-05-10T23:40:56.230Z,66.28
2019-05-10T23:43:24.715Z,67.48
2019-05-10T23:45:53.200Z,69.40
2019-05-10T23:48:21.716Z,70.16
2019-05-10T23:50:50.215Z,68.64
2019-05-10T23:53:18.700Z,68.77
2019-05-10T23:55:47.217Z,68.63
2019-05-10T23:58:15.743Z,69.31
